sensor_id;sensor_type;location;lat;lon;timestamp;temperature;humidity
64997;SHT31;51545;51.568;6.998;2023-04-03T00:00:30;2.11;91.87
64997;SHT31;51545;51.568;6.998;2023-04-03T00:02:56;2.12;92.05
64997;SHT31;51545;51.568;6.998;2023-04-03T00:05:22;2.18;91.88
64997;SHT31;51545;51.568;6.998;2023-04-03T00:07:47;2.18;91.72
64997;SHT31;51545;51.568;6.998;2023-04-03T00:10:14;2.19;91.64
64997;SHT31;51545;51.568;6.998;2023-04-03T00:12:40;2.22;91.51
64997;SHT31;51545;51.568;6.998;2023-04-03T00:15:06;2.26;91.42
64997;SHT31;51545;51.568;6.998;2023-04-03T00:17:31;2.25;91.15
64997;SHT31;51545;51.568;6.998;2023-04-03T00:19:57;2.28;91.06
64997;SHT31;51545;51.568;6.998;2023-04-03T00:22:22;2.18;91.02
64997;SHT31;51545;51.568;6.998;2023-04-03T00:24:48;2.23;91.02
64997;SHT31;51545;51.568;6.998;2023-04-03T00:27:13;2.39;90.51
64997;SHT31;51545;51.568;6.998;2023-04-03T00:29:38;2.46;90.03
64997;SHT31;51545;51.568;6.998;2023-04-03T00:32:04;2.50;89.46
64997;SHT31;51545;51.568;6.998;2023-04-03T00:34:30;2.64;88.56
64997;SHT31;51545;51.568;6.998;2023-04-03T00:36:55;2.71;88.17
64997;SHT31;51545;51.568;6.998;2023-04-03T00:39:22;2.81;88.37
64997;SHT31;51545;51.568;6.998;2023-04-03T00:41:47;2.80;88.03
64997;SHT31;51545;51.568;6.998;2023-04-03T00:44:22;2.74;88.34
64997;SHT31;51545;51.568;6.998;2023-04-03T00:47:09;2.73;87.75
64997;SHT31;51545;51.568;6.998;2023-04-03T00:49:37;2.73;87.63
64997;SHT31;51545;51.568;6.998;2023-04-03T00:52:04;2.78;86.93
64997;SHT31;51545;51.568;6.998;2023-04-03T00:54:33;2.84;86.73
64997;SHT31;51545;51.568;6.998;2023-04-03T00:57:01;2.91;86.13
64997;SHT31;51545;51.568;6.998;2023-04-03T00:59:30;2.95;86.09
64997;SHT31;51545;51.568;6.998;2023-04-03T01:01:59;3.01;85.63
64997;SHT31;51545;51.568;6.998;2023-04-03T01:04:29;3.06;85.27
64997;SHT31;51545;51.568;6.998;2023-04-03T01:06:58;3.02;85.51
64997;SHT31;51545;51.568;6.998;2023-04-03T01:09:31;3.08;85.20
64997;SHT31;51545;51.568;6.998;2023-04-03T01:14:44;3.06;84.51
64997;SHT31;51545;51.568;6.998;2023-04-03T01:25:34;3.11;82.96
64997;SHT31;51545;51.568;6.998;2023-04-03T01:28:03;3.08;83.93
64997;SHT31;51545;51.568;6.998;2023-04-03T01:30:31;3.15;83.35
64997;SHT31;51545;51.568;6.998;2023-04-03T01:33:00;3.16;82.98
64997;SHT31;51545;51.568;6.998;2023-04-03T01:35:26;3.15;82.68
64997;SHT31;51545;51.568;6.998;2023-04-03T01:37:51;3.11;82.64
64997;SHT31;51545;51.568;6.998;2023-04-03T01:40:17;3.12;82.94
64997;SHT31;51545;51.568;6.998;2023-04-03T01:42:43;3.11;83.11
64997;SHT31;51545;51.568;6.998;2023-04-03T01:45:08;3.01;83.50
64997;SHT31;51545;51.568;6.998;2023-04-03T01:47:34;3.06;83.17
64997;SHT31;51545;51.568;6.998;2023-04-03T01:50:00;3.05;82.88
64997;SHT31;51545;51.568;6.998;2023-04-03T01:52:25;3.03;83.11
64997;SHT31;51545;51.568;6.998;2023-04-03T01:54:51;2.98;82.50
64997;SHT31;51545;51.568;6.998;2023-04-03T01:57:16;2.99;82.80
64997;SHT31;51545;51.568;6.998;2023-04-03T01:59:42;2.92;83.36
64997;SHT31;51545;51.568;6.998;2023-04-03T02:02:07;2.89;82.92
64997;SHT31;51545;51.568;6.998;2023-04-03T02:04:33;2.89;82.74
64997;SHT31;51545;51.568;6.998;2023-04-03T02:06:58;2.84;82.78
64997;SHT31;51545;51.568;6.998;2023-04-03T02:09:24;2.88;82.55
64997;SHT31;51545;51.568;6.998;2023-04-03T02:11:49;2.87;82.49
64997;SHT31;51545;51.568;6.998;2023-04-03T02:14:15;2.83;82.84
64997;SHT31;51545;51.568;6.998;2023-04-03T02:16:40;2.81;83.31
64997;SHT31;51545;51.568;6.998;2023-04-03T02:19:07;2.78;83.03
64997;SHT31;51545;51.568;6.998;2023-04-03T02:21:33;2.83;82.97
64997;SHT31;51545;51.568;6.998;2023-04-03T02:23:59;2.83;82.45
64997;SHT31;51545;51.568;6.998;2023-04-03T02:26:25;2.83;82.66
64997;SHT31;51545;51.568;6.998;2023-04-03T02:28:50;2.68;82.80
64997;SHT31;51545;51.568;6.998;2023-04-03T02:31:17;2.73;82.74
64997;SHT31;51545;51.568;6.998;2023-04-03T02:33:42;2.70;83.07
64997;SHT31;51545;51.568;6.998;2023-04-03T02:36:08;2.77;83.09
64997;SHT31;51545;51.568;6.998;2023-04-03T02:38:34;2.63;82.78
64997;SHT31;51545;51.568;6.998;2023-04-03T02:41:04;2.58;83.18
64997;SHT31;51545;51.568;6.998;2023-04-03T02:43:31;2.54;83.45
64997;SHT31;51545;51.568;6.998;2023-04-03T02:45:56;2.54;83.26
64997;SHT31;51545;51.568;6.998;2023-04-03T02:48:22;2.54;82.98
64997;SHT31;51545;51.568;6.998;2023-04-03T02:50:48;2.47;83.08
64997;SHT31;51545;51.568;6.998;2023-04-03T02:53:14;2.47;83.24
64997;SHT31;51545;51.568;6.998;2023-04-03T02:55:40;2.49;83.44
64997;SHT31;51545;51.568;6.998;2023-04-03T02:58:06;2.46;83.13
64997;SHT31;51545;51.568;6.998;2023-04-03T03:00:31;2.53;83.12
64997;SHT31;51545;51.568;6.998;2023-04-03T03:02:57;2.49;83.35
64997;SHT31;51545;51.568;6.998;2023-04-03T03:05:22;2.43;83.72
64997;SHT31;51545;51.568;6.998;2023-04-03T03:07:48;2.36;83.90
64997;SHT31;51545;51.568;6.998;2023-04-03T03:10:13;2.40;84.04
64997;SHT31;51545;51.568;6.998;2023-04-03T03:12:39;2.40;83.72
64997;SHT31;51545;51.568;6.998;2023-04-03T03:15:06;2.33;84.08
64997;SHT31;51545;51.568;6.998;2023-04-03T03:17:32;2.32;83.83
64997;SHT31;51545;51.568;6.998;2023-04-03T03:19:57;2.36;83.73
64997;SHT31;51545;51.568;6.998;2023-04-03T03:22:23;2.29;83.97
64997;SHT31;51545;51.568;6.998;2023-04-03T03:24:48;2.28;83.76
64997;SHT31;51545;51.568;6.998;2023-04-03T03:27:14;2.13;84.32
64997;SHT31;51545;51.568;6.998;2023-04-03T03:29:41;2.13;84.86
64997;SHT31;51545;51.568;6.998;2023-04-03T03:32:07;2.15;84.35
64997;SHT31;51545;51.568;6.998;2023-04-03T03:34:32;2.13;84.14
64997;SHT31;51545;51.568;6.998;2023-04-03T03:36:58;2.19;84.26
64997;SHT31;51545;51.568;6.998;2023-04-03T03:39:24;2.09;84.13
64997;SHT31;51545;51.568;6.998;2023-04-03T03:41:49;2.11;84.46
64997;SHT31;51545;51.568;6.998;2023-04-03T03:44:15;2.03;84.53
64997;SHT31;51545;51.568;6.998;2023-04-03T03:46:40;1.98;84.68
64997;SHT31;51545;51.568;6.998;2023-04-03T03:49:06;1.94;85.03
64997;SHT31;51545;51.568;6.998;2023-04-03T03:51:31;1.99;84.64
64997;SHT31;51545;51.568;6.998;2023-04-03T03:53:57;1.90;84.50
64997;SHT31;51545;51.568;6.998;2023-04-03T03:56:22;1.78;85.26
64997;SHT31;51545;51.568;6.998;2023-04-03T03:58:48;1.73;85.60
64997;SHT31;51545;51.568;6.998;2023-04-03T04:01:14;1.74;85.54
64997;SHT31;51545;51.568;6.998;2023-04-03T04:03:40;1.75;85.18
64997;SHT31;51545;51.568;6.998;2023-04-03T04:06:06;1.87;85.24
64997;SHT31;51545;51.568;6.998;2023-04-03T04:08:32;1.75;85.06
64997;SHT31;51545;51.568;6.998;2023-04-03T04:10:58;1.68;85.18
64997;SHT31;51545;51.568;6.998;2023-04-03T04:13:24;1.60;85.65
64997;SHT31;51545;51.568;6.998;2023-04-03T04:15:50;1.59;85.87
64997;SHT31;51545;51.568;6.998;2023-04-03T04:18:15;1.55;86.11
64997;SHT31;51545;51.568;6.998;2023-04-03T04:20:41;1.49;86.27
64997;SHT31;51545;51.568;6.998;2023-04-03T04:23:06;1.53;86.30
64997;SHT31;51545;51.568;6.998;2023-04-03T04:25:32;1.47;86.21
64997;SHT31;51545;51.568;6.998;2023-04-03T04:27:57;1.45;86.55
64997;SHT31;51545;51.568;6.998;2023-04-03T04:30:23;1.50;86.72
64997;SHT31;51545;51.568;6.998;2023-04-03T04:32:48;1.47;86.76
64997;SHT31;51545;51.568;6.998;2023-04-03T04:35:14;1.42;86.65
64997;SHT31;51545;51.568;6.998;2023-04-03T04:37:40;1.42;86.51
64997;SHT31;51545;51.568;6.998;2023-04-03T04:40:06;1.43;86.61
64997;SHT31;51545;51.568;6.998;2023-04-03T04:42:32;1.38;86.82
64997;SHT31;51545;51.568;6.998;2023-04-03T04:44:58;1.35;86.68
64997;SHT31;51545;51.568;6.998;2023-04-03T04:47:23;1.39;86.81
64997;SHT31;51545;51.568;6.998;2023-04-03T04:49:49;1.26;86.53
64997;SHT31;51545;51.568;6.998;2023-04-03T04:52:15;1.24;86.97
64997;SHT31;51545;51.568;6.998;2023-04-03T04:54:40;1.21;87.19
64997;SHT31;51545;51.568;6.998;2023-04-03T04:57:07;1.24;87.22
64997;SHT31;51545;51.568;6.998;2023-04-03T04:59:32;1.26;87.11
64997;SHT31;51545;51.568;6.998;2023-04-03T05:01:58;1.21;87.22
64997;SHT31;51545;51.568;6.998;2023-04-03T05:04:23;1.05;87.37
64997;SHT31;51545;51.568;6.998;2023-04-03T05:06:49;1.02;87.68
64997;SHT31;51545;51.568;6.998;2023-04-03T05:09:14;0.92;87.98
64997;SHT31;51545;51.568;6.998;2023-04-03T05:11:40;0.87;88.05
64997;SHT31;51545;51.568;6.998;2023-04-03T05:14:05;0.83;88.42
64997;SHT31;51545;51.568;6.998;2023-04-03T05:16:32;0.87;88.23
64997;SHT31;51545;51.568;6.998;2023-04-03T05:18:57;0.92;88.18
64997;SHT31;51545;51.568;6.998;2023-04-03T05:21:23;0.91;88.07
64997;SHT31;51545;51.568;6.998;2023-04-03T05:23:51;1.02;88.04
64997;SHT31;51545;51.568;6.998;2023-04-03T05:26:16;1.09;87.71
64997;SHT31;51545;51.568;6.998;2023-04-03T05:28:42;1.00;87.84
64997;SHT31;51545;51.568;6.998;2023-04-03T05:31:07;0.97;87.81
64997;SHT31;51545;51.568;6.998;2023-04-03T05:33:33;0.92;88.31
64997;SHT31;51545;51.568;6.998;2023-04-03T05:36:02;1.04;88.01
64997;SHT31;51545;51.568;6.998;2023-04-03T05:38:28;1.04;87.87
64997;SHT31;51545;51.568;6.998;2023-04-03T05:40:54;1.15;87.66
64997;SHT31;51545;51.568;6.998;2023-04-03T05:43:19;1.14;87.33
64997;SHT31;51545;51.568;6.998;2023-04-03T05:45:46;1.09;87.08
64997;SHT31;51545;51.568;6.998;2023-04-03T05:48:12;1.05;87.52
64997;SHT31;51545;51.568;6.998;2023-04-03T05:50:38;1.09;87.28
64997;SHT31;51545;51.568;6.998;2023-04-03T05:53:06;1.01;87.69
64997;SHT31;51545;51.568;6.998;2023-04-03T05:55:33;1.02;87.75
64997;SHT31;51545;51.568;6.998;2023-04-03T05:57:59;1.04;87.82
64997;SHT31;51545;51.568;6.998;2023-04-03T06:00:24;1.09;87.56
64997;SHT31;51545;51.568;6.998;2023-04-03T06:02:50;1.09;87.34
64997;SHT31;51545;51.568;6.998;2023-04-03T06:05:15;1.09;87.38
64997;SHT31;51545;51.568;6.998;2023-04-03T06:07:41;1.21;86.60
64997;SHT31;51545;51.568;6.998;2023-04-03T06:10:07;1.35;86.17
64997;SHT31;51545;51.568;6.998;2023-04-03T06:12:33;1.39;85.75
64997;SHT31;51545;51.568;6.998;2023-04-03T06:14:59;1.42;85.64
64997;SHT31;51545;51.568;6.998;2023-04-03T06:17:24;1.47;85.04
64997;SHT31;51545;51.568;6.998;2023-04-03T06:19:50;1.53;84.90
64997;SHT31;51545;51.568;6.998;2023-04-03T06:22:16;1.59;84.66
64997;SHT31;51545;51.568;6.998;2023-04-03T06:24:41;1.66;84.51
64997;SHT31;51545;51.568;6.998;2023-04-03T06:27:06;1.66;84.04
64997;SHT31;51545;51.568;6.998;2023-04-03T06:29:32;1.74;83.75
64997;SHT31;51545;51.568;6.998;2023-04-03T06:31:58;1.75;83.16
64997;SHT31;51545;51.568;6.998;2023-04-03T06:34:23;1.80;83.38
64997;SHT31;51545;51.568;6.998;2023-04-03T06:36:49;1.87;83.18
64997;SHT31;51545;51.568;6.998;2023-04-03T06:39:16;1.87;82.54
64997;SHT31;51545;51.568;6.998;2023-04-03T06:41:45;1.94;82.21
64997;SHT31;51545;51.568;6.998;2023-04-03T06:44:10;1.97;82.87
64997;SHT31;51545;51.568;6.998;2023-04-03T06:46:38;2.12;82.16
64997;SHT31;51545;51.568;6.998;2023-04-03T06:49:03;2.16;81.81
64997;SHT31;51545;51.568;6.998;2023-04-03T06:51:29;2.20;81.28
64997;SHT31;51545;51.568;6.998;2023-04-03T06:53:56;2.18;81.63
64997;SHT31;51545;51.568;6.998;2023-04-03T06:56:24;2.26;81.22
64997;SHT31;51545;51.568;6.998;2023-04-03T06:58:50;2.23;81.10
64997;SHT31;51545;51.568;6.998;2023-04-03T07:01:17;2.26;80.35
64997;SHT31;51545;51.568;6.998;2023-04-03T07:03:44;2.32;79.94
64997;SHT31;51545;51.568;6.998;2023-04-03T07:06:11;2.33;79.69
64997;SHT31;51545;51.568;6.998;2023-04-03T07:08:38;2.36;80.01
64997;SHT31;51545;51.568;6.998;2023-04-03T07:11:04;2.49;79.61
64997;SHT31;51545;51.568;6.998;2023-04-03T07:13:30;2.60;79.64
64997;SHT31;51545;51.568;6.998;2023-04-03T07:15:57;2.70;79.32
64997;SHT31;51545;51.568;6.998;2023-04-03T07:18:23;2.70;78.89
64997;SHT31;51545;51.568;6.998;2023-04-03T07:20:49;2.77;79.32
64997;SHT31;51545;51.568;6.998;2023-04-03T07:23:15;2.74;78.85
64997;SHT31;51545;51.568;6.998;2023-04-03T07:25:44;2.80;78.68
64997;SHT31;51545;51.568;6.998;2023-04-03T07:28:11;2.81;78.58
64997;SHT31;51545;51.568;6.998;2023-04-03T07:30:47;2.94;78.30
64997;SHT31;51545;51.568;6.998;2023-04-03T07:33:15;2.96;78.01
64997;SHT31;51545;51.568;6.998;2023-04-03T07:35:42;3.01;77.28
64997;SHT31;51545;51.568;6.998;2023-04-03T07:38:09;3.08;77.61
64997;SHT31;51545;51.568;6.998;2023-04-03T07:40:35;3.18;77.58
64997;SHT31;51545;51.568;6.998;2023-04-03T07:43:01;3.16;77.03
64997;SHT31;51545;51.568;6.998;2023-04-03T07:45:27;3.36;77.52
64997;SHT31;51545;51.568;6.998;2023-04-03T07:47:53;3.39;76.60
64997;SHT31;51545;51.568;6.998;2023-04-03T07:50:19;3.42;75.85
64997;SHT31;51545;51.568;6.998;2023-04-03T07:52:45;4.88;85.62
64997;SHT31;51545;51.568;6.998;2023-04-03T07:55:11;4.56;78.30
64997;SHT31;51545;51.568;6.998;2023-04-03T07:57:37;5.37;77.42
64997;SHT31;51545;51.568;6.998;2023-04-03T08:00:03;5.19;73.88
64997;SHT31;51545;51.568;6.998;2023-04-03T08:02:30;5.45;76.86
64997;SHT31;51545;51.568;6.998;2023-04-03T08:04:57;5.44;74.83
64997;SHT31;51545;51.568;6.998;2023-04-03T08:07:23;5.75;73.77
64997;SHT31;51545;51.568;6.998;2023-04-03T08:09:50;6.03;74.04
64997;SHT31;51545;51.568;6.998;2023-04-03T08:12:16;6.54;67.54
64997;SHT31;51545;51.568;6.998;2023-04-03T08:14:41;6.33;70.21
64997;SHT31;51545;51.568;6.998;2023-04-03T08:17:07;5.82;68.47
64997;SHT31;51545;51.568;6.998;2023-04-03T08:19:36;6.05;68.27
64997;SHT31;51545;51.568;6.998;2023-04-03T08:22:03;5.81;68.33
64997;SHT31;51545;51.568;6.998;2023-04-03T08:24:30;5.02;68.11
64997;SHT31;51545;51.568;6.998;2023-04-03T08:26:56;4.58;68.63
64997;SHT31;51545;51.568;6.998;2023-04-03T08:29:21;4.47;69.08
64997;SHT31;51545;51.568;6.998;2023-04-03T08:31:47;4.57;69.38
64997;SHT31;51545;51.568;6.998;2023-04-03T08:34:14;4.53;69.15
64997;SHT31;51545;51.568;6.998;2023-04-03T08:36:40;4.64;70.02
64997;SHT31;51545;51.568;6.998;2023-04-03T08:39:06;4.86;70.44
64997;SHT31;51545;51.568;6.998;2023-04-03T08:49:34;5.12;66.28
64997;SHT31;51545;51.568;6.998;2023-04-03T08:52:09;5.19;65.84
64997;SHT31;51545;51.568;6.998;2023-04-03T08:54:43;5.33;66.76
64997;SHT31;51545;51.568;6.998;2023-04-03T08:57:15;5.28;64.94
64997;SHT31;51545;51.568;6.998;2023-04-03T08:59:45;5.50;65.75
64997;SHT31;51545;51.568;6.998;2023-04-03T09:02:24;5.64;65.45
64997;SHT31;51545;51.568;6.998;2023-04-03T09:04:51;5.74;65.12
64997;SHT31;51545;51.568;6.998;2023-04-03T09:07:21;5.71;62.73
64997;SHT31;51545;51.568;6.998;2023-04-03T09:09:56;5.64;61.95
64997;SHT31;51545;51.568;6.998;2023-04-03T09:12:45;5.83;63.33
64997;SHT31;51545;51.568;6.998;2023-04-03T09:15:22;5.92;61.92
64997;SHT31;51545;51.568;6.998;2023-04-03T09:17:53;6.05;63.35
64997;SHT31;51545;51.568;6.998;2023-04-03T09:23:18;6.16;61.90
64997;SHT31;51545;51.568;6.998;2023-04-03T09:25:53;6.38;61.73
64997;SHT31;51545;51.568;6.998;2023-04-03T09:28:26;6.45;60.59
64997;SHT31;51545;51.568;6.998;2023-04-03T09:30:52;6.42;60.83
64997;SHT31;51545;51.568;6.998;2023-04-03T09:33:18;6.64;59.86
64997;SHT31;51545;51.568;6.998;2023-04-03T09:35:46;6.64;57.94
64997;SHT31;51545;51.568;6.998;2023-04-03T09:40:39;6.85;55.86
64997;SHT31;51545;51.568;6.998;2023-04-03T09:43:20;6.69;54.29
64997;SHT31;51545;51.568;6.998;2023-04-03T09:45:46;7.11;56.08
64997;SHT31;51545;51.568;6.998;2023-04-03T09:50:52;7.34;53.92
64997;SHT31;51545;51.568;6.998;2023-04-03T09:53:39;7.58;52.96
64997;SHT31;51545;51.568;6.998;2023-04-03T09:58:42;7.30;50.25
64997;SHT31;51545;51.568;6.998;2023-04-03T10:01:21;7.39;50.80
64997;SHT31;51545;51.568;6.998;2023-04-03T10:04:05;7.44;52.13
64997;SHT31;51545;51.568;6.998;2023-04-03T10:06:36;8.25;51.38
64997;SHT31;51545;51.568;6.998;2023-04-03T10:09:17;9.46;46.20
64997;SHT31;51545;51.568;6.998;2023-04-03T10:12:05;9.04;45.77
64997;SHT31;51545;51.568;6.998;2023-04-03T10:14:37;9.91;44.12
64997;SHT31;51545;51.568;6.998;2023-04-03T10:17:25;10.07;44.42
64997;SHT31;51545;51.568;6.998;2023-04-03T10:23:00;10.36;45.75
64997;SHT31;51545;51.568;6.998;2023-04-03T10:30:35;11.67;46.17
64997;SHT31;51545;51.568;6.998;2023-04-03T10:33:20;11.98;43.38
64997;SHT31;51545;51.568;6.998;2023-04-03T10:36:10;10.36;44.90
64997;SHT31;51545;51.568;6.998;2023-04-03T10:44:29;11.28;45.35
64997;SHT31;51545;51.568;6.998;2023-04-03T10:47:15;10.05;45.53
64997;SHT31;51545;51.568;6.998;2023-04-03T10:50:21;11.07;45.56
64997;SHT31;51545;51.568;6.998;2023-04-03T10:58:30;12.36;42.88
64997;SHT31;51545;51.568;6.998;2023-04-03T11:01:01;13.11;42.44
64997;SHT31;51545;51.568;6.998;2023-04-03T11:03:42;12.48;42.36
64997;SHT31;51545;51.568;6.998;2023-04-03T11:06:22;12.01;43.05
64997;SHT31;51545;51.568;6.998;2023-04-03T11:11:40;11.67;43.32
64997;SHT31;51545;51.568;6.998;2023-04-03T11:14:24;12.97;43.49
64997;SHT31;51545;51.568;6.998;2023-04-03T11:16:59;13.59;42.37
64997;SHT31;51545;51.568;6.998;2023-04-03T11:19:39;14.59;39.52
64997;SHT31;51545;51.568;6.998;2023-04-03T11:27:40;13.26;42.07
64997;SHT31;51545;51.568;6.998;2023-04-03T11:30:07;12.88;40.49
64997;SHT31;51545;51.568;6.998;2023-04-03T11:32:48;13.12;42.72
64997;SHT31;51545;51.568;6.998;2023-04-03T11:35:17;13.97;40.50
64997;SHT31;51545;51.568;6.998;2023-04-03T11:37:46;14.70;41.13
64997;SHT31;51545;51.568;6.998;2023-04-03T11:42:46;13.42;42.38
64997;SHT31;51545;51.568;6.998;2023-04-03T11:50:48;13.35;39.61
64997;SHT31;51545;51.568;6.998;2023-04-03T11:58:17;13.59;41.95
64997;SHT31;51545;51.568;6.998;2023-04-03T12:00:49;13.94;37.97
64997;SHT31;51545;51.568;6.998;2023-04-03T12:16:22;15.43;37.75
64997;SHT31;51545;51.568;6.998;2023-04-03T12:21:18;15.25;36.17
64997;SHT31;51545;51.568;6.998;2023-04-03T12:29:29;14.98;38.33
64997;SHT31;51545;51.568;6.998;2023-04-03T12:39:51;15.02;37.13
64997;SHT31;51545;51.568;6.998;2023-04-03T12:43:01;13.53;39.83
64997;SHT31;51545;51.568;6.998;2023-04-03T12:45:47;13.19;40.71
64997;SHT31;51545;51.568;6.998;2023-04-03T12:48:30;13.94;41.05
64997;SHT31;51545;51.568;6.998;2023-04-03T12:50:59;14.53;41.53
64997;SHT31;51545;51.568;6.998;2023-04-03T12:53:26;13.46;41.00
64997;SHT31;51545;51.568;6.998;2023-04-03T12:56:18;13.46;39.56
64997;SHT31;51545;51.568;6.998;2023-04-03T13:01:56;14.21;40.21
64997;SHT31;51545;51.568;6.998;2023-04-03T13:04:30;13.98;40.57
64997;SHT31;51545;51.568;6.998;2023-04-03T13:06:57;13.77;39.03
64997;SHT31;51545;51.568;6.998;2023-04-03T13:09:24;13.32;40.42
64997;SHT31;51545;51.568;6.998;2023-04-03T13:12:08;13.38;41.05
64997;SHT31;51545;51.568;6.998;2023-04-03T13:14:37;13.95;41.71
64997;SHT31;51545;51.568;6.998;2023-04-03T13:17:04;13.80;39.48
64997;SHT31;51545;51.568;6.998;2023-04-03T13:19:35;13.29;39.07
64997;SHT31;51545;51.568;6.998;2023-04-03T13:22:04;14.18;37.82
64997;SHT31;51545;51.568;6.998;2023-04-03T13:24:34;15.60;37.85
64997;SHT31;51545;51.568;6.998;2023-04-03T13:27:03;14.76;37.16
64997;SHT31;51545;51.568;6.998;2023-04-03T13:29:31;15.22;38.06
64997;SHT31;51545;51.568;6.998;2023-04-03T13:31:59;17.36;35.54
64997;SHT31;51545;51.568;6.998;2023-04-03T13:34:27;14.49;35.58
64997;SHT31;51545;51.568;6.998;2023-04-03T13:36:57;14.98;38.50
64997;SHT31;51545;51.568;6.998;2023-04-03T13:39:29;15.73;37.06
64997;SHT31;51545;51.568;6.998;2023-04-03T13:42:00;16.94;38.04
64997;SHT31;51545;51.568;6.998;2023-04-03T13:44:47;16.67;34.57
64997;SHT31;51545;51.568;6.998;2023-04-03T13:47:16;16.15;36.89
64997;SHT31;51545;51.568;6.998;2023-04-03T13:49:46;15.95;37.92
64997;SHT31;51545;51.568;6.998;2023-04-03T13:55:23;16.40;36.68
64997;SHT31;51545;51.568;6.998;2023-04-03T13:57:59;17.04;36.63
64997;SHT31;51545;51.568;6.998;2023-04-03T14:03:11;15.61;36.29
64997;SHT31;51545;51.568;6.998;2023-04-03T14:05:49;16.60;36.51
64997;SHT31;51545;51.568;6.998;2023-04-03T14:08:15;14.22;38.01
64997;SHT31;51545;51.568;6.998;2023-04-03T14:10:41;14.59;38.24
64997;SHT31;51545;51.568;6.998;2023-04-03T14:13:08;15.88;37.28
64997;SHT31;51545;51.568;6.998;2023-04-03T14:15:36;16.63;35.37
64997;SHT31;51545;51.568;6.998;2023-04-03T14:18:02;15.88;36.13
64997;SHT31;51545;51.568;6.998;2023-04-03T14:20:28;14.87;38.02
64997;SHT31;51545;51.568;6.998;2023-04-03T14:22:53;14.08;38.03
64997;SHT31;51545;51.568;6.998;2023-04-03T14:25:21;14.18;38.13
64997;SHT31;51545;51.568;6.998;2023-04-03T14:27:49;14.25;38.23
64997;SHT31;51545;51.568;6.998;2023-04-03T14:30:18;15.66;36.86
64997;SHT31;51545;51.568;6.998;2023-04-03T14:32:48;16.40;35.64
64997;SHT31;51545;51.568;6.998;2023-04-03T14:35:14;15.18;37.05
64997;SHT31;51545;51.568;6.998;2023-04-03T14:37:41;14.78;38.23
64997;SHT31;51545;51.568;6.998;2023-04-03T14:40:08;14.52;39.22
64997;SHT31;51545;51.568;6.998;2023-04-03T14:42:37;14.84;38.96
64997;SHT31;51545;51.568;6.998;2023-04-03T14:45:04;13.80;38.86
64997;SHT31;51545;51.568;6.998;2023-04-03T14:47:33;14.76;37.68
64997;SHT31;51545;51.568;6.998;2023-04-03T14:50:06;15.94;38.00
64997;SHT31;51545;51.568;6.998;2023-04-03T14:52:34;16.94;36.40
64997;SHT31;51545;51.568;6.998;2023-04-03T14:55:01;14.18;37.55
64997;SHT31;51545;51.568;6.998;2023-04-03T14:57:28;16.40;37.95
64997;SHT31;51545;51.568;6.998;2023-04-03T14:59:54;15.74;36.88
64997;SHT31;51545;51.568;6.998;2023-04-03T15:04:56;15.08;38.50
64997;SHT31;51545;51.568;6.998;2023-04-03T15:07:23;15.57;37.13
64997;SHT31;51545;51.568;6.998;2023-04-03T15:09:51;16.70;36.55
64997;SHT31;51545;51.568;6.998;2023-04-03T15:12:17;17.08;35.06
64997;SHT31;51545;51.568;6.998;2023-04-03T15:14:42;16.29;34.92
64997;SHT31;51545;51.568;6.998;2023-04-03T15:17:15;15.87;36.25
64997;SHT31;51545;51.568;6.998;2023-04-03T15:19:45;15.40;36.46
64997;SHT31;51545;51.568;6.998;2023-04-03T15:22:15;16.63;35.92
64997;SHT31;51545;51.568;6.998;2023-04-03T15:24:42;16.74;35.66
64997;SHT31;51545;51.568;6.998;2023-04-03T15:27:08;15.88;36.86
64997;SHT31;51545;51.568;6.998;2023-04-03T15:29:35;15.15;37.89
64997;SHT31;51545;51.568;6.998;2023-04-03T15:32:01;14.69;37.48
64997;SHT31;51545;51.568;6.998;2023-04-03T15:34:27;15.40;38.08
64997;SHT31;51545;51.568;6.998;2023-04-03T15:36:53;15.26;38.26
64997;SHT31;51545;51.568;6.998;2023-04-03T15:39:19;14.98;38.49
64997;SHT31;51545;51.568;6.998;2023-04-03T15:41:45;16.11;37.35
64997;SHT31;51545;51.568;6.998;2023-04-03T15:44:11;15.32;37.43
64997;SHT31;51545;51.568;6.998;2023-04-03T15:46:38;15.26;37.51
64997;SHT31;51545;51.568;6.998;2023-04-03T15:49:04;14.02;39.56
64997;SHT31;51545;51.568;6.998;2023-04-03T15:51:30;13.74;38.91
64997;SHT31;51545;51.568;6.998;2023-04-03T15:53:56;15.16;37.89
64997;SHT31;51545;51.568;6.998;2023-04-03T15:56:21;14.04;39.09
64997;SHT31;51545;51.568;6.998;2023-04-03T15:58:47;14.11;39.36
64997;SHT31;51545;51.568;6.998;2023-04-03T16:01:12;14.94;38.24
64997;SHT31;51545;51.568;6.998;2023-04-03T16:03:39;14.08;38.99
64997;SHT31;51545;51.568;6.998;2023-04-03T16:06:10;13.94;40.75
64997;SHT31;51545;51.568;6.998;2023-04-03T16:08:39;14.16;39.13
64997;SHT31;51545;51.568;6.998;2023-04-03T16:11:05;14.46;38.56
64997;SHT31;51545;51.568;6.998;2023-04-03T16:13:30;15.14;38.15
64997;SHT31;51545;51.568;6.998;2023-04-03T16:15:57;14.94;38.07
64997;SHT31;51545;51.568;6.998;2023-04-03T16:18:23;14.33;39.23
64997;SHT31;51545;51.568;6.998;2023-04-03T16:20:48;14.98;38.10
64997;SHT31;51545;51.568;6.998;2023-04-03T16:23:14;14.84;37.86
64997;SHT31;51545;51.568;6.998;2023-04-03T16:25:40;14.70;38.11
64997;SHT31;51545;51.568;6.998;2023-04-03T16:28:10;14.81;37.69
64997;SHT31;51545;51.568;6.998;2023-04-03T16:30:36;14.78;38.02
64997;SHT31;51545;51.568;6.998;2023-04-03T16:33:02;14.60;38.43
64997;SHT31;51545;51.568;6.998;2023-04-03T16:35:27;14.99;37.59
64997;SHT31;51545;51.568;6.998;2023-04-03T16:37:53;15.11;37.13
64997;SHT31;51545;51.568;6.998;2023-04-03T16:40:19;13.76;39.31
64997;SHT31;51545;51.568;6.998;2023-04-03T16:42:44;12.88;39.57
64997;SHT31;51545;51.568;6.998;2023-04-03T16:45:11;14.56;38.27
64997;SHT31;51545;51.568;6.998;2023-04-03T16:47:36;14.59;37.81
64997;SHT31;51545;51.568;6.998;2023-04-03T16:50:02;13.93;37.82
64997;SHT31;51545;51.568;6.998;2023-04-03T16:52:28;13.00;39.37
64997;SHT31;51545;51.568;6.998;2023-04-03T16:54:53;12.55;40.37
64997;SHT31;51545;51.568;6.998;2023-04-03T16:57:20;12.77;40.09
64997;SHT31;51545;51.568;6.998;2023-04-03T16:59:47;13.16;38.98
64997;SHT31;51545;51.568;6.998;2023-04-03T17:02:12;12.32;41.05
64997;SHT31;51545;51.568;6.998;2023-04-03T17:04:38;12.20;40.92
64997;SHT31;51545;51.568;6.998;2023-04-03T17:07:03;11.66;42.39
64997;SHT31;51545;51.568;6.998;2023-04-03T17:09:31;11.66;42.44
64997;SHT31;51545;51.568;6.998;2023-04-03T17:11:58;10.95;43.76
64997;SHT31;51545;51.568;6.998;2023-04-03T17:14:23;11.19;44.15
64997;SHT31;51545;51.568;6.998;2023-04-03T17:16:49;11.19;43.76
64997;SHT31;51545;51.568;6.998;2023-04-03T17:19:15;10.83;43.82
64997;SHT31;51545;51.568;6.998;2023-04-03T17:21:42;10.72;44.26
64997;SHT31;51545;51.568;6.998;2023-04-03T17:24:08;10.46;44.38
64997;SHT31;51545;51.568;6.998;2023-04-03T17:26:37;10.40;45.00
64997;SHT31;51545;51.568;6.998;2023-04-03T17:29:05;9.95;46.24
64997;SHT31;51545;51.568;6.998;2023-04-03T17:31:30;9.87;46.15
64997;SHT31;51545;51.568;6.998;2023-04-03T17:33:56;9.80;46.53
64997;SHT31;51545;51.568;6.998;2023-04-03T17:36:22;9.42;46.40